createdAt,value
2023-05-01T00:01:41.497Z,99346.13
2023-05-01T00:04:08.066Z,99345.94
2023-05-01T00:06:34.606Z,99342.56
2023-05-01T00:09:01.586Z,99334.69
2023-05-01T00:11:28.034Z,99341.94
2023-05-01T00:13:54.564Z,99338.97
2023-05-01T00:16:21.323Z,99333.06
2023-05-01T00:18:47.922Z,99329.94
2023-05-01T00:21:14.340Z,99324.84
2023-05-01T00:23:40.885Z,99334.50
2023-05-01T00:26:07.953Z,99326.63
2023-05-01T00:28:34.502Z,99323.53
2023-05-01T00:31:01.173Z,99319.63
2023-05-01T00:33:27.580Z,99321.94
2023-05-01T00:35:56.088Z,99319.44
2023-05-01T00:38:24.058Z,99326.28
2023-05-01T00:40:50.871Z,99324.84
2023-05-01T00:43:17.253Z,99321.34
2023-05-01T00:45:46.319Z,99326.16
2023-05-01T00:48:13.342Z,99319.28
2023-05-01T00:50:40.884Z,99307.09
2023-05-01T00:53:07.776Z,99314.47
2023-05-01T00:55:35.751Z,99305.72
2023-05-01T00:58:03.878Z,99305.16
2023-05-01T01:00:30.995Z,99312.50
2023-05-01T01:02:57.514Z,99304.03
2023-05-01T01:05:28.077Z,99300.94
2023-05-01T01:08:26.689Z,99300.78
2023-05-01T01:10:57.739Z,99301.22
2023-05-01T01:13:37.270Z,99296.13
2023-05-01T01:16:23.548Z,99293.84
2023-05-01T01:19:02.600Z,99297.81
2023-05-01T01:21:34.961Z,99294.97
2023-05-01T01:24:41.543Z,99287.06
2023-05-01T01:27:38.858Z,99289.88
2023-05-01T01:30:11.666Z,99280.56
2023-05-01T01:33:01.321Z,99291.09
2023-05-01T01:35:30.001Z,99288.00
2023-05-01T01:38:09.650Z,99288.13
2023-05-01T01:40:43.921Z,99283.88
2023-05-01T01:43:13.744Z,99279.53
2023-05-01T01:45:43.924Z,99280.22
2023-05-01T01:48:15.112Z,99273.72
2023-05-01T01:50:43.663Z,99276.97
2023-05-01T01:53:13.021Z,99272.84
2023-05-01T01:55:41.442Z,99280.75
2023-05-01T01:58:10.881Z,99273.59
2023-05-01T02:00:41.963Z,99264.69
2023-05-01T02:03:10.443Z,99260.34
2023-05-01T02:05:40.512Z,99260.34
2023-05-01T02:08:08.605Z,99264.13
2023-05-01T02:10:37.015Z,99262.44
2023-05-01T02:13:04.544Z,99252.97
2023-05-01T02:15:33.496Z,99255.34
2023-05-01T02:18:03.404Z,99251.00
2023-05-01T02:20:30.570Z,99261.53
2023-05-01T02:22:58.495Z,99252.22
2023-05-01T02:25:27.965Z,99254.31
2023-05-01T02:27:57.905Z,99252.03
2023-05-01T02:30:24.504Z,99248.34
2023-05-01T02:32:51.022Z,99254.16
2023-05-01T02:35:17.843Z,99249.09
2023-05-01T02:37:45.443Z,99249.38
2023-05-01T02:40:15.110Z,99252.19
2023-05-01T02:42:44.867Z,99249.63
2023-05-01T02:45:19.988Z,99238.09
2023-05-01T02:47:48.487Z,99239.91
2023-05-01T02:50:17.309Z,99231.75
2023-05-01T02:52:44.967Z,99230.66
2023-05-01T02:55:11.889Z,99230.34
2023-05-01T02:57:38.735Z,99224.88
2023-05-01T03:00:09.290Z,99223.91
2023-05-01T03:02:35.806Z,99222.34
2023-05-01T03:05:02.397Z,99225.00
2023-05-01T03:07:34.912Z,99226.72
2023-05-01T03:10:04.494Z,99224.66
2023-05-01T03:12:31.300Z,99221.13
2023-05-01T03:14:58.386Z,99213.56
2023-05-01T03:17:24.905Z,99216.66
2023-05-01T03:19:51.592Z,99222.72
2023-05-01T03:22:18.695Z,99218.09
2023-05-01T03:24:45.441Z,99214.44
2023-05-01T03:27:12.008Z,99209.94
2023-05-01T03:29:38.633Z,99211.63
2023-05-01T03:32:05.712Z,99199.09
2023-05-01T03:34:32.369Z,99199.66
2023-05-01T03:36:58.737Z,99202.06
2023-05-01T03:39:25.617Z,99193.91
2023-05-01T03:41:52.381Z,99196.59
2023-05-01T03:44:18.994Z,99191.94
2023-05-01T03:46:45.634Z,99194.34
2023-05-01T03:49:12.616Z,99199.00
2023-05-01T03:51:39.028Z,99194.63
2023-05-01T03:54:05.553Z,99198.56
2023-05-01T03:56:35.574Z,99191.38
2023-05-01T03:59:02.574Z,99200.50
2023-05-01T04:01:29.055Z,99195.16
2023-05-01T04:03:55.520Z,99193.50
2023-05-01T04:06:22.794Z,99186.88
2023-05-01T04:08:49.676Z,99189.25
2023-05-01T04:11:17.339Z,99187.03
2023-05-01T04:13:43.743Z,99180.69
2023-05-01T04:16:10.283Z,99187.72
2023-05-01T04:18:37.100Z,99180.69
2023-05-01T04:21:04.136Z,99182.63
2023-05-01T04:23:31.018Z,99182.94
2023-05-01T04:25:57.419Z,99175.88
2023-05-01T04:28:23.992Z,99177.72
2023-05-01T04:30:50.576Z,99168.03
2023-05-01T04:33:17.110Z,99169.69
2023-05-01T04:35:43.645Z,99167.44
2023-05-01T04:38:10.500Z,99170.13
2023-05-01T04:40:37.117Z,99167.31
2023-05-01T04:43:03.566Z,99164.22
2023-05-01T04:45:30.447Z,99161.53
2023-05-01T04:47:56.909Z,99168.88
2023-05-01T04:50:23.731Z,99164.38
2023-05-01T04:52:50.471Z,99168.88
2023-05-01T04:55:18.155Z,99169.88
2023-05-01T04:57:44.576Z,99165.09
2023-05-01T05:00:11.570Z,99172.28
2023-05-01T05:02:38.873Z,99162.72
2023-05-01T05:05:05.742Z,99169.03
2023-05-01T05:07:32.368Z,99164.66
2023-05-01T05:09:59.059Z,99167.22
2023-05-01T05:12:25.977Z,99164.13
2023-05-01T05:14:52.672Z,99162.56
2023-05-01T05:17:19.060Z,99166.94
2023-05-01T05:19:45.969Z,99164.53
2023-05-01T05:22:12.544Z,99164.13
2023-05-01T05:24:39.156Z,99164.84
2023-05-01T05:27:07.073Z,99166.50
2023-05-01T05:29:34.874Z,99159.59
2023-05-01T05:32:01.477Z,99166.50
2023-05-01T05:34:27.909Z,99160.00
2023-05-01T05:36:54.502Z,99161.84
2023-05-01T05:39:24.082Z,99159.31
2023-05-01T05:41:52.366Z,99156.59
2023-05-01T05:44:18.719Z,99150.25
2023-05-01T05:46:45.771Z,99152.84
2023-05-01T05:49:12.255Z,99145.34
2023-05-01T05:51:38.892Z,99146.56
2023-05-01T05:54:05.731Z,99146.91
2023-05-01T05:56:32.117Z,99148.38
2023-05-01T05:58:58.711Z,99144.53
2023-05-01T06:01:25.514Z,99144.78
2023-05-01T06:03:52.006Z,99136.63
2023-05-01T06:06:18.533Z,99130.19
2023-05-01T06:08:46.222Z,99138.44
2023-05-01T06:11:13.118Z,99132.22
2023-05-01T06:13:40.752Z,99125.97
2023-05-01T06:16:07.803Z,99120.75
2023-05-01T06:18:34.523Z,99123.75
2023-05-01T06:21:00.921Z,99124.78
2023-05-01T06:23:28.273Z,99127.47
2023-05-01T06:25:54.711Z,99127.19
2023-05-01T06:28:21.826Z,99123.84
2023-05-01T06:30:48.302Z,99116.00
2023-05-01T06:33:15.268Z,99121.22
2023-05-01T06:35:41.732Z,99114.91
2023-05-01T06:38:08.331Z,99117.91
2023-05-01T06:40:35.175Z,99119.28
2023-05-01T06:43:02.945Z,99117.94
2023-05-01T06:45:29.582Z,99106.84
2023-05-01T06:47:56.327Z,99122.16
2023-05-01T06:50:23.889Z,99111.97
2023-05-01T06:52:50.893Z,99118.56
2023-05-01T06:55:17.556Z,99110.53
2023-05-01T06:57:44.313Z,99114.97
2023-05-01T07:00:11.687Z,99108.25
2023-05-01T07:02:38.374Z,99115.50
2023-05-01T07:05:05.625Z,99115.34
2023-05-01T07:07:32.481Z,99109.84
2023-05-01T07:09:59.559Z,99107.19
2023-05-01T07:12:26.739Z,99113.09
2023-05-01T07:14:53.254Z,99102.19
2023-05-01T07:17:19.686Z,99104.03
2023-05-01T07:19:46.161Z,99104.25
2023-05-01T07:22:12.711Z,99103.56
2023-05-01T07:24:39.092Z,99099.69
2023-05-01T07:27:06.226Z,99102.91
2023-05-01T07:29:33.139Z,99092.78
2023-05-01T07:32:01.299Z,99092.66
2023-05-01T07:34:28.359Z,99091.31
2023-05-01T07:36:55.134Z,99094.34
2023-05-01T07:39:22.004Z,99086.09
2023-05-01T07:41:48.510Z,99083.59
2023-05-01T07:44:14.995Z,99089.84
2023-05-01T07:46:41.701Z,99082.44
2023-05-01T07:49:08.219Z,99090.34
2023-05-01T07:51:34.953Z,99085.75
2023-05-01T07:54:04.941Z,99086.63
2023-05-01T07:56:31.539Z,99092.00
2023-05-01T07:58:58.016Z,99087.09
2023-05-01T08:01:24.700Z,99080.66
2023-05-01T08:03:51.616Z,99081.31
2023-05-01T08:06:18.309Z,99078.78
2023-05-01T08:08:45.310Z,99086.09
2023-05-01T08:11:12.255Z,99087.63
2023-05-01T08:13:38.722Z,99090.84
2023-05-01T08:16:05.382Z,99094.53
2023-05-01T08:18:31.861Z,99095.09
2023-05-01T08:20:58.673Z,99092.13
2023-05-01T08:23:25.337Z,99091.38
2023-05-01T08:25:52.660Z,99092.78
2023-05-01T08:28:22.810Z,99088.47
2023-05-01T08:30:49.486Z,99080.00
2023-05-01T08:33:16.665Z,99083.47
2023-05-01T08:35:43.256Z,99084.38
2023-05-01T08:38:11.489Z,99077.31
2023-05-01T08:40:38.776Z,99077.72
2023-05-01T08:43:05.394Z,99077.56
2023-05-01T08:45:38.134Z,99075.78
2023-05-01T08:48:10.236Z,99077.81
2023-05-01T08:50:39.510Z,99083.69
2023-05-01T08:53:08.554Z,99067.44
2023-05-01T08:55:36.521Z,99066.56
2023-05-01T08:58:04.230Z,99061.94
2023-05-01T09:00:34.544Z,99066.22
2023-05-01T09:03:02.966Z,99060.56
2023-05-01T09:05:32.605Z,99063.63
2023-05-01T09:07:59.468Z,99062.44
2023-05-01T09:10:27.372Z,99067.19
2023-05-01T09:12:59.749Z,99064.00
2023-05-01T09:15:27.322Z,99059.75
2023-05-01T09:17:54.833Z,99059.13
2023-05-01T09:20:21.895Z,99047.84
2023-05-01T09:22:49.539Z,99054.59
2023-05-01T09:25:16.030Z,99051.34
2023-05-01T09:27:44.135Z,99051.78
2023-05-01T09:30:29.640Z,99047.63
2023-05-01T09:33:12.048Z,99051.47
2023-05-01T09:35:53.442Z,99050.31
2023-05-01T09:38:24.417Z,99051.91
2023-05-01T09:40:52.630Z,99045.88
2023-05-01T09:43:29.809Z,99042.38
2023-05-01T09:46:05.184Z,99036.19
2023-05-01T09:48:34.838Z,99037.47
2023-05-01T09:51:20.657Z,99036.41
2023-05-01T09:53:47.073Z,99040.09
2023-05-01T09:56:14.725Z,99036.97
2023-05-01T09:58:41.302Z,99036.34
2023-05-01T10:01:08.626Z,99038.81
2023-05-01T10:03:35.411Z,99032.50
2023-05-01T10:06:04.417Z,99027.47
2023-05-01T10:08:48.014Z,99030.50
2023-05-01T10:11:14.823Z,99033.00
2023-05-01T10:13:41.674Z,99033.22
2023-05-01T10:16:29.169Z,99027.97
2023-05-01T10:19:01.095Z,99034.09
2023-05-01T10:21:29.231Z,99028.31
2023-05-01T10:23:55.902Z,99034.31
2023-05-01T10:26:22.276Z,99023.75
2023-05-01T10:28:49.688Z,99036.34
2023-05-01T10:31:16.889Z,99027.56
2023-05-01T10:33:45.882Z,99020.94
2023-05-01T10:36:26.265Z,99024.56
2023-05-01T10:38:53.177Z,99018.94
2023-05-01T10:41:58.427Z,99023.16
2023-05-01T10:44:27.866Z,99017.28
2023-05-01T10:46:54.920Z,99012.03
2023-05-01T10:49:21.853Z,99018.72
2023-05-01T10:51:58.871Z,99008.84
2023-05-01T10:54:27.506Z,99008.25
2023-05-01T10:56:56.049Z,99005.13
2023-05-01T10:59:22.678Z,99002.09
2023-05-01T11:01:54.144Z,98994.91
2023-05-01T11:04:21.756Z,98994.88
2023-05-01T11:07:08.279Z,99006.16
2023-05-01T11:09:42.144Z,98996.97
2023-05-01T11:12:13.880Z,99003.50
2023-05-01T11:14:57.065Z,98998.63
2023-05-01T11:17:43.525Z,98992.91
2023-05-01T11:20:34.558Z,98984.50
2023-05-01T11:23:01.484Z,98984.59
2023-05-01T11:25:31.305Z,98982.03
2023-05-01T11:27:59.658Z,98984.13
2023-05-01T11:30:26.380Z,98978.19
2023-05-01T11:32:53.361Z,98980.53
2023-05-01T11:35:26.839Z,98966.63
2023-05-01T11:37:56.312Z,98973.09
2023-05-01T11:40:27.335Z,98974.03
2023-05-01T11:43:05.371Z,98970.59
2023-05-01T11:45:32.811Z,98969.13
2023-05-01T11:48:02.124Z,98970.97
2023-05-01T11:50:37.954Z,98967.78
2023-05-01T11:53:16.125Z,98969.09
2023-05-01T11:55:43.318Z,98966.59
2023-05-01T11:58:10.806Z,98972.91
2023-05-01T12:00:42.416Z,98966.19
2023-05-01T12:03:13.349Z,98966.44
2023-05-01T12:05:45.044Z,98969.75
2023-05-01T12:08:14.908Z,98969.75
2023-05-01T12:10:43.548Z,98972.00
2023-05-01T12:13:12.921Z,98971.16
2023-05-01T12:15:45.127Z,98966.09
2023-05-01T12:18:13.160Z,98986.97
2023-05-01T12:20:47.863Z,98981.50
2023-05-01T12:23:18.670Z,98978.13
2023-05-01T12:25:46.473Z,98979.75
2023-05-01T12:28:14.380Z,98974.31
2023-05-01T12:30:43.121Z,98977.19
2023-05-01T12:33:15.683Z,98985.72
2023-05-01T12:35:46.417Z,98983.09
2023-05-01T12:38:21.049Z,98979.06
2023-05-01T12:40:54.556Z,98983.59
2023-05-01T12:43:29.918Z,98984.38
2023-05-01T12:45:56.687Z,98993.13
2023-05-01T12:48:24.539Z,98993.75
2023-05-01T12:50:55.183Z,98991.94
2023-05-01T12:53:26.057Z,98988.63
2023-05-01T12:55:54.392Z,98990.59
2023-05-01T12:58:21.737Z,98992.63
2023-05-01T13:00:49.797Z,98997.94
2023-05-01T13:03:22.889Z,98995.28
2023-05-01T13:05:53.795Z,98991.00
2023-05-01T13:08:32.371Z,98994.78
2023-05-01T13:11:10.504Z,99000.41
2023-05-01T13:13:37.658Z,98987.09
2023-05-01T13:16:16.727Z,98987.19
2023-05-01T13:18:46.014Z,98978.06
2023-05-01T13:21:22.706Z,98979.41
2023-05-01T13:23:55.709Z,98986.09
2023-05-01T13:26:31.468Z,98979.28
2023-05-01T13:29:00.279Z,98972.44
2023-05-01T13:31:28.263Z,98981.25
2023-05-01T13:33:57.566Z,98980.50
2023-05-01T13:36:26.564Z,98978.84
2023-05-01T13:38:56.490Z,98976.78
2023-05-01T13:41:29.539Z,98975.19
2023-05-01T13:43:58.058Z,98980.66
2023-05-01T13:46:27.253Z,98966.50
2023-05-01T13:48:53.990Z,98971.56
2023-05-01T13:51:25.290Z,98970.53
2023-05-01T13:53:53.489Z,98968.44
2023-05-01T13:56:21.509Z,98972.44
2023-05-01T13:58:48.202Z,98968.44
2023-05-01T14:01:21.230Z,98970.75
2023-05-01T14:03:49.283Z,98969.53
2023-05-01T14:06:21.009Z,98970.34
2023-05-01T14:08:48.771Z,98964.06
2023-05-01T14:11:15.705Z,98959.06
2023-05-01T14:13:44.462Z,98969.06
2023-05-01T14:16:26.975Z,98969.91
2023-05-01T14:18:56.565Z,98961.31
2023-05-01T14:21:25.180Z,98960.31
2023-05-01T14:23:53.062Z,98963.63
2023-05-01T14:26:21.681Z,98963.63
2023-05-01T14:28:48.187Z,98976.66
2023-05-01T14:31:29.633Z,98966.56
2023-05-01T14:33:58.827Z,98976.19
2023-05-01T14:36:26.750Z,98985.16
2023-05-01T14:38:56.720Z,98979.47
2023-05-01T14:41:23.178Z,98983.56
2023-05-01T14:43:53.136Z,98986.22
2023-05-01T14:46:28.597Z,98998.00
2023-05-01T14:48:55.855Z,98990.06
2023-05-01T14:51:22.999Z,98992.06
2023-05-01T14:53:49.607Z,99002.44
2023-05-01T14:56:16.150Z,98997.00
2023-05-01T14:58:43.414Z,99004.47
2023-05-01T15:01:10.162Z,98997.34
2023-05-01T15:03:41.215Z,99000.50
2023-05-01T15:06:08.900Z,99009.16
2023-05-01T15:08:35.892Z,99009.94
2023-05-01T15:11:03.062Z,99009.63
2023-05-01T15:13:31.565Z,99007.84
2023-05-01T15:15:58.492Z,99015.91
2023-05-01T15:18:25.104Z,99011.97
2023-05-01T15:20:54.175Z,99024.56
2023-05-01T15:23:20.677Z,99026.44
2023-05-01T15:25:47.913Z,99028.63
2023-05-01T15:28:14.740Z,99029.00
2023-05-01T15:30:45.378Z,99048.06
2023-05-01T15:33:18.559Z,99040.91
2023-05-01T15:35:47.087Z,99056.47
2023-05-01T15:38:14.329Z,99060.09
2023-05-01T15:40:43.926Z,99056.31
2023-05-01T15:43:10.741Z,99071.31
2023-05-01T15:45:43.993Z,99068.41
2023-05-01T15:48:12.649Z,99069.56
2023-05-01T15:50:41.237Z,99082.94
2023-05-01T15:53:08.986Z,99097.34
2023-05-01T15:55:36.781Z,99101.72
2023-05-01T15:58:04.161Z,99074.94
2023-05-01T16:00:31.407Z,99074.63
2023-05-01T16:02:58.231Z,99085.47
2023-05-01T16:05:26.579Z,99089.78
2023-05-01T16:08:01.082Z,99092.66
2023-05-01T16:10:28.353Z,99091.47
2023-05-01T16:12:55.591Z,99093.09
2023-05-01T16:15:23.137Z,99095.50
2023-05-01T16:17:51.588Z,99098.69
2023-05-01T16:20:19.142Z,99107.16
2023-05-01T16:22:46.813Z,99095.50
2023-05-01T16:25:14.268Z,99117.44
2023-05-01T16:27:45.817Z,99113.59
2023-05-01T16:30:16.384Z,99111.16
2023-05-01T16:32:44.614Z,99114.53
2023-05-01T16:35:16.730Z,99121.63
2023-05-01T16:37:43.319Z,99110.22
2023-05-01T16:40:16.607Z,99119.81
2023-05-01T16:42:43.820Z,99122.66
2023-05-01T16:45:10.988Z,99123.56
2023-05-01T16:47:39.244Z,99126.75
2023-05-01T16:50:08.609Z,99129.09
2023-05-01T16:52:35.767Z,99137.72
2023-05-01T16:55:02.235Z,99130.84
2023-05-01T16:57:28.818Z,99133.22
2023-05-01T16:59:55.559Z,99134.19
2023-05-01T17:02:22.548Z,99135.84
2023-05-01T17:04:49.289Z,99145.44
2023-05-01T17:07:15.881Z,99149.66
2023-05-01T17:09:42.536Z,99150.38
2023-05-01T17:12:09.199Z,99153.41
2023-05-01T17:14:35.621Z,99147.69
2023-05-01T17:17:02.153Z,99144.16
2023-05-01T17:19:28.706Z,99152.13
2023-05-01T17:21:56.947Z,99158.84
2023-05-01T17:24:24.654Z,99154.66
2023-05-01T17:26:51.046Z,99155.84
2023-05-01T17:29:17.410Z,99165.31
2023-05-01T17:31:44.400Z,99167.34
2023-05-01T17:34:10.906Z,99168.66
2023-05-01T17:36:38.865Z,99172.25
2023-05-01T17:39:05.418Z,99176.78
2023-05-01T17:41:32.289Z,99178.13
2023-05-01T17:43:58.669Z,99179.66
2023-05-01T17:46:25.358Z,99198.88
2023-05-01T17:48:51.864Z,99193.69
2023-05-01T17:51:18.251Z,99196.38
2023-05-01T17:53:45.925Z,99200.41
2023-05-01T17:56:12.691Z,99200.75
2023-05-01T17:58:41.482Z,99202.41
2023-05-01T18:01:08.795Z,99204.25
2023-05-01T18:03:36.778Z,99201.81
2023-05-01T18:06:05.847Z,99215.31
2023-05-01T18:08:33.476Z,99213.78
2023-05-01T18:11:01.077Z,99208.88
2023-05-01T18:13:29.286Z,99211.38
2023-05-01T18:15:56.720Z,99216.94
2023-05-01T18:18:24.914Z,99199.94
2023-05-01T18:20:51.707Z,99207.81
2023-05-01T18:23:18.686Z,99207.31
2023-05-01T18:25:45.368Z,99216.38
2023-05-01T18:28:12.141Z,99214.50
2023-05-01T18:30:38.506Z,99218.16
2023-05-01T18:33:04.991Z,99221.81
2023-05-01T18:35:31.415Z,99222.44
2023-05-01T18:37:57.799Z,99224.31
2023-05-01T18:40:24.228Z,99234.09
2023-05-01T18:42:51.070Z,99232.53
2023-05-01T18:45:17.602Z,99229.34
2023-05-01T18:47:44.464Z,99223.91
2023-05-01T18:50:11.422Z,99233.50
2023-05-01T18:52:38.300Z,99228.28
2023-05-01T18:55:05.215Z,99238.09
2023-05-01T18:57:32.830Z,99239.09
2023-05-01T19:00:01.016Z,99244.13
2023-05-01T19:02:27.792Z,99264.28
2023-05-01T19:04:58.020Z,99267.25
2023-05-01T19:07:26.147Z,99258.50
2023-05-01T19:09:52.718Z,99270.09
2023-05-01T19:12:19.133Z,99279.66
2023-05-01T19:14:45.596Z,99268.16
2023-05-01T19:17:11.981Z,99265.31
2023-05-01T19:19:38.356Z,99275.25
2023-05-01T19:22:04.696Z,99282.72
2023-05-01T19:24:31.250Z,99286.44
2023-05-01T19:26:57.901Z,99287.56
2023-05-01T19:29:24.324Z,99292.56
2023-05-01T19:31:50.749Z,99289.59
2023-05-01T19:34:17.252Z,99286.50
2023-05-01T19:36:43.639Z,99293.75
2023-05-01T19:39:10.172Z,99284.66
2023-05-01T19:41:36.977Z,99290.25
2023-05-01T19:44:03.757Z,99299.78
2023-05-01T19:46:30.310Z,99305.38
2023-05-01T19:48:56.781Z,99321.00
2023-05-01T19:51:23.173Z,99311.13
2023-05-01T19:53:49.547Z,99323.63
2023-05-01T19:56:16.174Z,99326.56
2023-05-01T19:58:42.546Z,99332.56
2023-05-01T20:01:11.780Z,99329.53
2023-05-01T20:03:39.006Z,99339.06
2023-05-01T20:06:06.310Z,99340.94
2023-05-01T20:08:33.529Z,99337.63
2023-05-01T20:11:01.471Z,99344.69
2023-05-01T20:13:28.261Z,99353.75
2023-05-01T20:15:54.824Z,99352.88
2023-05-01T20:18:22.069Z,99366.13
2023-05-01T20:20:48.558Z,99365.72
2023-05-01T20:23:16.666Z,99372.34
2023-05-01T20:25:43.692Z,99375.31
2023-05-01T20:28:11.405Z,99380.66
2023-05-01T20:30:43.673Z,99377.69
2023-05-01T20:33:10.845Z,99386.19
2023-05-01T20:35:38.302Z,99389.84
2023-05-01T20:38:05.132Z,99388.00
2023-05-01T20:40:32.531Z,99392.94
2023-05-01T20:43:00.150Z,99396.44
2023-05-01T20:45:27.018Z,99402.22
2023-05-01T20:47:53.515Z,99402.19
2023-05-01T20:50:20.678Z,99398.50
2023-05-01T20:52:47.553Z,99400.47
2023-05-01T20:55:13.910Z,99399.31
2023-05-01T20:57:40.675Z,99395.50
2023-05-01T21:00:07.963Z,99403.47
2023-05-01T21:02:40.539Z,99401.50
2023-05-01T21:05:11.496Z,99411.38
2023-05-01T21:07:42.002Z,99408.84
2023-05-01T21:10:14.377Z,99413.59
2023-05-01T21:12:41.059Z,99409.13
2023-05-01T21:15:08.687Z,99414.75
2023-05-01T21:17:36.743Z,99417.56
2023-05-01T21:20:09.530Z,99416.72
2023-05-01T21:22:36.792Z,99414.19
2023-05-01T21:25:03.487Z,99415.19
2023-05-01T21:27:29.821Z,99421.06
2023-05-01T21:29:59.484Z,99420.63
2023-05-01T21:32:49.257Z,99424.94
2023-05-01T21:35:17.902Z,99422.53
2023-05-01T21:37:45.962Z,99426.59
2023-05-01T21:40:14.174Z,99426.72
2023-05-01T21:42:40.754Z,99428.34
2023-05-01T21:45:08.939Z,99426.94
2023-05-01T21:47:38.258Z,99434.97
2023-05-01T21:50:06.910Z,99439.00
2023-05-01T21:52:34.623Z,99446.91
2023-05-01T21:55:04.040Z,99443.75
2023-05-01T21:57:31.765Z,99447.69
2023-05-01T22:00:01.417Z,99462.03
2023-05-01T22:02:40.699Z,99459.78
2023-05-01T22:05:08.242Z,99456.75
2023-05-01T22:07:37.604Z,99463.44
2023-05-01T22:10:04.343Z,99471.75
2023-05-01T22:12:30.714Z,99470.63
2023-05-01T22:14:57.614Z,99475.16
2023-05-01T22:17:24.361Z,99477.09
2023-05-01T22:19:51.625Z,99489.34
2023-05-01T22:22:19.448Z,99480.75
2023-05-01T22:24:46.102Z,99484.78
2023-05-01T22:27:12.471Z,99482.41
2023-05-01T22:29:39.248Z,99489.72
2023-05-01T22:32:05.837Z,99490.78
2023-05-01T22:34:32.255Z,99501.59
2023-05-01T22:36:58.982Z,99504.28
2023-05-01T22:39:25.449Z,99493.34
2023-05-01T22:41:51.796Z,99489.94
2023-05-01T22:44:18.474Z,99498.22
2023-05-01T22:46:46.944Z,99499.28
2023-05-01T22:49:13.522Z,99509.38
2023-05-01T22:51:40.053Z,99514.41
2023-05-01T22:54:06.411Z,99505.03
2023-05-01T22:56:32.895Z,99503.72
2023-05-01T22:58:59.511Z,99501.16
2023-05-01T23:01:27.308Z,99500.81
2023-05-01T23:03:54.174Z,99498.25
2023-05-01T23:06:21.533Z,99513.91
2023-05-01T23:08:52.601Z,99521.22
2023-05-01T23:11:21.468Z,99518.88
2023-05-01T23:13:49.890Z,99516.59
2023-05-01T23:16:17.345Z,99520.63
2023-05-01T23:18:45.272Z,99517.94
2023-05-01T23:21:13.125Z,99520.63
2023-05-01T23:23:43.614Z,99520.63
2023-05-01T23:26:12.422Z,99524.25
2023-05-01T23:28:43.481Z,99519.88
2023-05-01T23:31:18.516Z,99520.97
2023-05-01T23:33:45.415Z,99527.38
2023-05-01T23:36:12.997Z,99527.66
2023-05-01T23:38:40.345Z,99526.28
2023-05-01T23:41:10.543Z,99516.22
2023-05-01T23:43:38.593Z,99516.69
2023-05-01T23:46:07.664Z,99523.72
2023-05-01T23:48:34.777Z,99538.38
2023-05-01T23:51:02.981Z,99529.88
2023-05-01T23:53:29.509Z,99537.41
2023-05-01T23:55:56.711Z,99536.81
2023-05-01T23:58:23.776Z,99535.97
